Time;durP1;ratioP1;P1;durP2;ratioP2;P2;SDS_P1;SDS_P2;PMS_P1;PMS_P2;Temp;Humidity;BMP_temperature;BMP_pressure;BME280_temperature;BME280_humidity;BME280_pressure;Samples;Min_cycle;Max_cycle;Signal;HPM_P1;HPM_P2
2022/03/20 00:01:54;;;;;;;2.43;0.73;;;6.90;99.90;;;;;;6147946;23;20185;-92
2022/03/20 00:04:29;;;;;;;3.40;0.70;;;6.90;99.90;;;;;;6147467;23;20234;-92
2022/03/20 00:07:02;;;;;;;2.93;0.60;;;6.90;99.90;;;;;;6121886;23;20558;-92
2022/03/20 00:09:33;;;;;;;2.83;0.60;;;6.90;99.90;;;;;;6148806;23;20218;-93
2022/03/20 00:12:08;;;;;;;4.00;0.60;;;6.90;99.90;;;;;;6147524;23;20174;-91
2022/03/20 00:17:21;;;;;;;1.20;0.60;;;7.00;99.90;;;;;;6145412;23;20288;-92
2022/03/20 00:19:54;;;;;;;2.70;0.67;;;7.00;99.90;;;;;;6145333;23;20170;-92
2022/03/20 00:22:26;;;;;;;2.50;0.87;;;7.00;99.90;;;;;;6147192;23;20240;-93
2022/03/20 00:24:58;;;;;;;3.57;0.60;;;6.90;99.90;;;;;;6145704;23;20175;-93
2022/03/20 00:27:30;;;;;;;2.10;0.87;;;6.90;99.90;;;;;;6146032;23;20193;-92
2022/03/20 00:30:01;;;;;;;3.77;0.73;;;6.90;99.90;;;;;;6098077;23;20167;-93
2022/03/20 00:32:32;;;;;;;2.67;0.60;;;6.80;99.90;;;;;;6146375;23;20170;-93
2022/03/20 00:35:07;;;;;;;1.40;0.67;;;6.70;99.90;;;;;;6146736;23;20171;-93
2022/03/20 00:40:12;;;;;;;3.10;0.80;;;6.60;99.90;;;;;;6147120;23;20183;-93
2022/03/20 00:42:43;;;;;;;3.03;0.77;;;6.60;99.90;;;;;;6147165;23;20185;-93
2022/03/20 00:45:15;;;;;;;2.13;0.50;;;6.70;99.90;;;;;;6146247;23;20189;-93
2022/03/20 00:47:46;;;;;;;3.70;0.80;;;6.70;99.90;;;;;;6143106;23;20179;-92
2022/03/20 00:50:18;;;;;;;1.87;0.70;;;6.70;99.90;;;;;;6134589;23;20170;-93
2022/03/20 00:52:51;;;;;;;1.17;0.50;;;6.70;99.90;;;;;;6108160;23;20212;-93
2022/03/20 00:55:21;;;;;;;3.27;0.87;;;6.60;99.90;;;;;;6146926;23;20177;-92
2022/03/20 00:57:53;;;;;;;2.73;0.70;;;6.60;99.90;;;;;;6116846;23;20234;-92
2022/03/20 01:00:25;;;;;;;2.43;0.63;;;6.70;99.90;;;;;;6145571;23;20222;-93
2022/03/20 01:02:57;;;;;;;2.33;0.90;;;6.60;99.90;;;;;;6146236;23;20696;-93
2022/03/20 01:05:54;;;;;;;2.63;0.90;;;6.60;99.90;;;;;;6142368;23;20227;-93
2022/03/20 01:08:25;;;;;;;2.50;0.87;;;6.60;99.90;;;;;;6147164;23;20181;-92
2022/03/20 01:10:59;;;;;;;2.43;0.80;;;6.60;99.90;;;;;;6149505;23;20170;-90
2022/03/20 01:13:31;;;;;;;1.73;0.87;;;6.60;99.90;;;;;;6153798;23;20173;-93
2022/03/20 01:16:04;;;;;;;3.37;1.00;;;6.50;99.90;;;;;;6129576;23;20216;-93
2022/03/20 01:26:47;;;;;;;2.63;0.93;;;6.10;99.90;;;;;;6119709;23;20174;-91
2022/03/20 01:34:37;;;;;;;2.63;0.83;;;6.00;99.90;;;;;;6174963;23;20210;-89
2022/03/20 01:37:10;;;;;;;1.10;0.60;;;6.00;99.90;;;;;;6144741;23;20223;-91
2022/03/20 01:39:41;;;;;;;2.47;0.77;;;6.00;99.90;;;;;;6141874;23;20222;-92
2022/03/20 01:42:15;;;;;;;3.97;0.90;;;5.90;99.90;;;;;;6142834;23;20174;-88
2022/03/20 01:44:47;;;;;;;4.33;1.10;;;5.80;99.90;;;;;;6146785;23;20627;-93
2022/03/20 01:47:18;;;;;;;1.50;1.00;;;5.80;99.90;;;;;;6121015;23;20184;-93
2022/03/20 01:49:50;;;;;;;2.53;1.20;;;5.50;99.90;;;;;;6138920;23;20223;-93
2022/03/20 01:52:25;;;;;;;1.00;0.90;;;5.50;99.90;;;;;;6144686;23;20557;-93
2022/03/20 01:54:57;;;;;;;2.67;1.17;;;5.60;99.90;;;;;;6145008;23;20190;-92
2022/03/20 01:57:36;;;;;;;3.43;1.07;;;5.50;99.90;;;;;;6138824;23;20201;-93
2022/03/20 02:00:13;;;;;;;6.30;1.10;;;5.60;99.90;;;;;;6147095;23;20170;-95
2022/03/20 02:02:44;;;;;;;2.77;1.47;;;5.60;99.90;;;;;;6142599;23;20170;-92
2022/03/20 02:05:17;;;;;;;2.30;1.00;;;5.60;99.90;;;;;;6146671;23;20209;-93
2022/03/20 02:07:49;;;;;;;3.63;1.00;;;5.50;99.90;;;;;;6143818;23;20260;-93
2022/03/20 02:10:20;;;;;;;4.03;1.10;;;5.30;99.90;;;;;;6144435;23;20170;-92
2022/03/20 02:12:54;;;;;;;1.80;1.23;;;5.40;99.90;;;;;;6116709;23;20195;-93
2022/03/20 02:15:26;;;;;;;1.93;0.73;;;5.40;99.90;;;;;;6138482;23;20178;-93
2022/03/20 02:17:58;;;;;;;1.43;1.00;;;5.40;99.90;;;;;;6141567;23;20203;-93
2022/03/20 02:20:31;;;;;;;2.97;0.90;;;5.40;99.90;;;;;;6137716;23;20171;-93
2022/03/20 02:23:04;;;;;;;2.03;0.70;;;5.30;99.90;;;;;;6141354;23;20175;-93
2022/03/20 02:25:38;;;;;;;3.00;0.80;;;5.30;99.90;;;;;;6145959;23;20170;-93
2022/03/20 02:28:09;;;;;;;1.10;0.80;;;5.30;99.90;;;;;;6143341;23;20170;-93
2022/03/20 02:30:41;;;;;;;1.30;0.70;;;5.30;99.90;;;;;;6137822;23;20178;-92
2022/03/20 02:33:13;;;;;;;1.80;0.70;;;5.30;99.90;;;;;;6118738;23;20247;-92
2022/03/20 02:35:44;;;;;;;2.17;1.20;;;5.30;99.90;;;;;;6118403;23;20186;-91
2022/03/20 02:38:20;;;;;;;4.37;1.30;;;5.30;99.90;;;;;;6145072;23;20242;-93
2022/03/20 02:40:54;;;;;;;1.70;0.70;;;5.20;99.90;;;;;;6170402;23;20177;-93
2022/03/20 02:43:29;;;;;;;1.90;1.40;;;5.20;99.90;;;;;;6181071;23;20158;-92
2022/03/20 02:46:02;;;;;;;3.00;1.10;;;5.10;99.90;;;;;;6181582;23;20168;-93
2022/03/20 02:48:34;;;;;;;2.80;1.43;;;5.20;99.90;;;;;;6179723;23;20188;-92
2022/03/20 02:51:05;;;;;;;1.97;1.20;;;5.20;99.90;;;;;;6181420;23;20161;-92
2022/03/20 02:53:38;;;;;;;2.17;1.10;;;5.20;99.90;;;;;;6183527;23;20181;-93
2022/03/20 02:56:12;;;;;;;4.23;1.77;;;5.20;99.90;;;;;;6183710;23;20165;-92
2022/03/20 02:58:44;;;;;;;2.73;1.30;;;5.10;99.90;;;;;;6183337;23;20216;-92
2022/03/20 03:01:15;;;;;;;4.67;1.47;;;5.10;99.90;;;;;;6184572;23;20193;-93
2022/03/20 03:03:47;;;;;;;2.70;1.30;;;5.10;99.90;;;;;;6180474;23;20297;-89
2022/03/20 03:06:19;;;;;;;1.40;0.97;;;5.10;99.90;;;;;;6191645;23;20201;-91
2022/03/20 03:11:40;;;;;;;3.30;1.00;;;5.10;99.90;;;;;;6209649;23;20173;-93
2022/03/20 03:17:00;;;;;;;1.23;1.07;;;4.90;99.90;;;;;;6206849;23;20170;-93
2022/03/20 03:19:31;;;;;;;2.70;0.80;;;4.90;99.90;;;;;;6201355;23;20639;-92
2022/03/20 03:22:03;;;;;;;1.83;0.63;;;4.90;99.90;;;;;;6208360;23;20188;-92
2022/03/20 03:24:35;;;;;;;1.63;0.60;;;4.90;99.90;;;;;;6207436;23;20237;-92
2022/03/20 03:27:07;;;;;;;2.70;1.60;;;4.90;99.90;;;;;;6209360;23;20170;-93
2022/03/20 03:29:38;;;;;;;1.30;0.70;;;4.90;99.90;;;;;;6213294;23;20172;-92
2022/03/20 03:32:10;;;;;;;3.70;0.83;;;4.90;99.90;;;;;;6214530;23;20157;-93
2022/03/20 03:37:28;;;;;;;3.00;1.03;;;4.90;99.90;;;;;;6166410;23;20221;-92
2022/03/20 03:40:02;;;;;;;1.83;1.00;;;4.90;99.90;;;;;;6151858;23;20187;-92
2022/03/20 03:42:35;;;;;;;1.73;0.87;;;4.80;99.90;;;;;;6148450;23;20167;-92
2022/03/20 03:45:08;;;;;;;1.50;0.70;;;4.80;99.90;;;;;;6145051;23;20170;-93
2022/03/20 03:47:40;;;;;;;1.20;0.87;;;4.90;99.90;;;;;;6117198;23;20178;-93
2022/03/20 03:50:12;;;;;;;1.00;0.70;;;4.90;99.90;;;;;;6147107;23;20182;-92
2022/03/20 03:52:43;;;;;;;0.73;0.70;;;4.90;99.90;;;;;;6145553;23;20167;-93
2022/03/20 03:55:16;;;;;;;1.13;0.83;;;4.80;99.90;;;;;;6141808;23;20185;-93
2022/03/20 03:57:49;;;;;;;0.97;0.77;;;4.80;99.90;;;;;;6109368;23;20266;-92
2022/03/20 04:00:22;;;;;;;2.37;0.50;;;4.70;99.90;;;;;;6143405;23;20185;-92
2022/03/20 04:02:53;;;;;;;2.07;0.60;;;4.70;99.90;;;;;;6150006;23;20185;-93
2022/03/20 04:05:25;;;;;;;1.67;0.80;;;4.60;99.90;;;;;;6150086;23;20210;-92
2022/03/20 04:07:57;;;;;;;1.40;0.80;;;4.60;99.90;;;;;;6119321;23;20182;-92
2022/03/20 04:10:30;;;;;;;1.20;0.80;;;4.50;99.90;;;;;;6145671;23;20166;-92
2022/03/20 04:13:01;;;;;;;0.60;0.53;;;4.50;99.90;;;;;;6145574;23;20178;-93
2022/03/20 04:15:33;;;;;;;1.60;0.80;;;4.40;99.90;;;;;;6145584;23;20167;-92
2022/03/20 04:18:04;;;;;;;0.90;0.70;;;4.30;99.90;;;;;;6141926;23;20198;-93
2022/03/20 04:20:36;;;;;;;0.80;0.60;;;4.30;99.90;;;;;;6122204;23;20174;-91
2022/03/20 04:28:44;;;;;;;3.10;1.10;;;4.10;99.90;;;;;;6177868;23;20652;-92
2022/03/20 04:31:16;;;;;;;1.30;0.70;;;4.10;99.90;;;;;;6164533;23;20207;-91
2022/03/20 04:33:49;;;;;;;2.30;0.90;;;4.00;99.90;;;;;;6164656;23;20178;-91
2022/03/20 04:36:24;;;;;;;1.70;0.93;;;3.90;99.90;;;;;;6166117;23;20177;-92
2022/03/20 04:38:56;;;;;;;2.73;0.63;;;3.80;99.90;;;;;;6174886;23;20205;-93
2022/03/20 04:41:28;;;;;;;1.80;0.73;;;3.80;99.90;;;;;;6183073;23;20158;-90
2022/03/20 04:44:03;;;;;;;3.93;0.80;;;3.80;99.90;;;;;;6183176;23;20249;-92
2022/03/20 04:46:34;;;;;;;1.80;1.10;;;3.70;99.90;;;;;;6183442;23;20181;-92
2022/03/20 05:00:31;;;;;;;2.10;1.20;;;3.50;99.90;;;;;;6164626;23;20170;-91
2022/03/20 05:03:02;;;;;;;4.00;0.90;;;3.40;99.90;;;;;;6166121;23;20180;-92
2022/03/20 05:05:33;;;;;;;2.30;1.10;;;3.40;99.90;;;;;;6165551;23;20182;-92
2022/03/20 05:08:05;;;;;;;1.70;1.30;;;3.40;99.90;;;;;;6162997;23;20220;-91
2022/03/20 05:13:23;;;;;;;3.53;1.73;;;3.40;99.90;;;;;;6179549;23;20174;-92
2022/03/20 05:15:57;;;;;;;2.00;1.47;;;3.30;99.90;;;;;;6166619;23;20170;-92
2022/03/20 05:18:28;;;;;;;3.53;1.13;;;3.30;99.90;;;;;;6163810;23;20205;-91
2022/03/20 05:23:56;;;;;;;3.00;1.30;;;3.30;99.90;;;;;;6176140;23;20177;-91
2022/03/20 05:29:09;;;;;;;2.67;1.10;;;3.20;99.90;;;;;;6204276;23;20278;-91
2022/03/20 05:31:42;;;;;;;2.43;1.00;;;3.10;99.90;;;;;;6211236;23;20577;-91
2022/03/20 05:34:15;;;;;;;3.07;1.33;;;3.10;99.90;;;;;;6202408;23;20223;-91
2022/03/20 05:36:46;;;;;;;2.47;1.47;;;3.00;99.90;;;;;;6182281;23;20177;-91
2022/03/20 05:42:28;;;;;;;4.43;2.30;;;2.90;99.90;;;;;;6199788;23;20177;-92
2022/03/20 05:45:00;;;;;;;3.47;1.77;;;2.90;99.90;;;;;;6199945;23;20177;-92
2022/03/20 05:47:34;;;;;;;1.67;1.57;;;2.80;99.90;;;;;;6206151;23;20173;-92
2022/03/20 05:50:08;;;;;;;0.97;0.97;;;2.80;99.90;;;;;;6206270;23;20187;-91
2022/03/20 05:52:39;;;;;;;1.73;1.00;;;2.80;99.90;;;;;;6179529;23;20180;-92
2022/03/20 05:55:11;;;;;;;2.47;1.00;;;2.80;99.90;;;;;;6196678;23;20212;-91
2022/03/20 05:58:04;;;;;;;1.50;0.83;;;2.80;99.90;;;;;;6211694;23;20231;-93
2022/03/20 06:00:35;;;;;;;4.20;1.47;;;2.80;99.90;;;;;;6209802;23;20176;-89
2022/03/20 06:03:08;;;;;;;1.50;1.00;;;2.80;99.90;;;;;;6209300;23;20191;-92
2022/03/20 06:05:39;;;;;;;1.87;1.10;;;2.80;99.90;;;;;;6205962;23;20173;-92
2022/03/20 06:08:10;;;;;;;2.37;1.00;;;2.80;99.90;;;;;;6204392;23;20624;-93
2022/03/20 06:10:43;;;;;;;1.33;0.87;;;2.80;99.90;;;;;;6206272;23;20183;-92
2022/03/20 06:13:14;;;;;;;4.23;1.90;;;2.70;99.90;;;;;;6205433;23;20169;-91
2022/03/20 06:15:57;;;;;;;4.77;1.57;;;2.70;99.90;;;;;;6203957;23;20184;-93
2022/03/20 06:18:31;;;;;;;4.97;1.20;;;2.70;99.90;;;;;;6203561;23;20216;-93
2022/03/20 06:21:03;;;;;;;3.30;1.40;;;2.70;99.90;;;;;;6203603;23;20176;-92
2022/03/20 06:23:39;;;;;;;2.07;1.43;;;2.70;99.90;;;;;;6206473;23;20169;-90
2022/03/20 06:26:27;;;;;;;2.77;1.20;;;2.80;99.90;;;;;;6195384;23;20177;-92
2022/03/20 06:28:58;;;;;;;1.30;1.10;;;2.80;99.90;;;;;;6203051;23;20183;-91
2022/03/20 06:31:29;;;;;;;2.07;1.10;;;2.80;99.90;;;;;;6205584;23;20169;-91
2022/03/20 06:34:04;;;;;;;3.50;1.43;;;2.80;99.90;;;;;;6198649;23;20177;-92
2022/03/20 06:36:35;;;;;;;1.70;1.00;;;2.70;99.90;;;;;;6206598;23;20211;-90
2022/03/20 06:39:07;;;;;;;5.13;1.30;;;2.70;99.90;;;;;;6208920;23;20193;-89
2022/03/20 06:41:38;;;;;;;1.53;1.00;;;2.60;99.90;;;;;;6160797;23;20169;-90
2022/03/20 06:44:15;;;;;;;5.47;1.70;;;2.60;99.90;;;;;;6208306;23;20201;-90
2022/03/20 06:49:45;;;;;;;10.77;2.27;;;2.60;99.90;;;;;;6203993;23;20177;-94
2022/03/20 06:52:16;;;;;;;7.33;1.60;;;2.60;99.90;;;;;;6205431;23;20207;-91
2022/03/20 06:54:47;;;;;;;3.17;1.50;;;2.60;99.90;;;;;;6177092;23;20192;-92
2022/03/20 06:57:20;;;;;;;6.00;1.70;;;2.60;99.90;;;;;;6204530;23;20188;-92
2022/03/20 06:59:51;;;;;;;3.87;1.80;;;2.60;99.90;;;;;;6202004;23;20200;-93
2022/03/20 07:02:31;;;;;;;5.77;1.70;;;2.60;99.90;;;;;;6203614;23;20173;-91
2022/03/20 07:05:05;;;;;;;8.17;1.97;;;2.70;99.90;;;;;;6204391;23;20228;-91
2022/03/20 07:07:36;;;;;;;8.50;1.73;;;2.70;99.90;;;;;;6203511;23;20193;-93
2022/03/20 07:10:16;;;;;;;9.40;1.70;;;2.70;99.90;;;;;;6205112;23;20240;-94
2022/03/20 07:13:48;;;;;;;10.13;2.37;;;2.80;99.90;;;;;;6203174;23;20247;-93
2022/03/20 07:15:45;;;;;;;8.57;2.23;;;2.90;99.90;;;;;;6206690;23;20177;-92
2022/03/20 07:18:29;;;;;;;11.33;2.60;;;2.90;99.90;;;;;;6204250;23;20165;-92
2022/03/20 07:21:02;;;;;;;10.63;2.30;;;2.90;99.90;;;;;;6203727;23;20204;-93
2022/03/20 07:23:38;;;;;;;8.07;1.93;;;2.90;99.90;;;;;;6197612;23;20210;-94
2022/03/20 07:31:45;;;;;;;7.10;1.73;;;3.10;99.90;;;;;;6203518;23;20177;-92
2022/03/20 07:34:17;;;;;;;7.67;2.43;;;3.10;99.90;;;;;;6207977;23;20158;-94
2022/03/20 07:36:50;;;;;;;4.43;1.67;;;3.20;99.90;;;;;;6180605;23;20165;-93
2022/03/20 07:39:30;;;;;;;3.77;1.73;;;3.20;99.90;;;;;;6183131;23;20188;-94
2022/03/20 07:42:02;;;;;;;6.50;1.53;;;3.30;99.90;;;;;;6207072;23;20219;-93
2022/03/20 07:44:33;;;;;;;5.63;1.60;;;3.30;99.90;;;;;;6204282;23;20177;-92
2022/03/20 07:47:08;;;;;;;3.53;1.50;;;3.30;99.90;;;;;;6202610;23;20181;-94
2022/03/20 07:49:42;;;;;;;8.30;2.00;;;3.20;99.90;;;;;;6206083;23;20191;-94
2022/03/20 07:55:05;;;;;;;4.90;2.40;;;3.20;99.90;;;;;;6183663;23;20189;-93
2022/03/20 07:57:43;;;;;;;7.17;1.97;;;3.20;99.90;;;;;;6182462;23;20237;-94
2022/03/20 08:00:15;;;;;;;6.13;1.67;;;3.30;99.90;;;;;;6206916;23;20216;-93
2022/03/20 08:02:47;;;;;;;7.93;1.97;;;3.30;99.90;;;;;;6182188;23;20195;-93
2022/03/20 08:08:41;;;;;;;10.10;1.43;;;3.30;99.90;;;;;;6207959;23;20169;-94
2022/03/20 08:11:12;;;;;;;7.10;1.60;;;3.50;99.90;;;;;;6213815;23;20175;-93
2022/03/20 08:13:45;;;;;;;3.97;1.47;;;3.50;99.90;;;;;;6189599;23;20157;-93
2022/03/20 08:16:21;;;;;;;3.73;1.70;;;3.50;99.90;;;;;;6210418;23;20185;-94
2022/03/20 08:18:53;;;;;;;5.00;1.50;;;3.50;99.90;;;;;;6209048;23;20165;-93
2022/03/20 08:21:24;;;;;;;8.30;1.80;;;3.60;99.90;;;;;;6205629;23;20193;-93
2022/03/20 08:24:12;;;;;;;5.97;1.40;;;3.60;99.90;;;;;;6176945;23;20252;-94
2022/03/20 08:26:43;;;;;;;5.47;1.60;;;3.60;99.90;;;;;;6203499;23;20172;-93
2022/03/20 08:29:15;;;;;;;8.57;1.50;;;3.60;99.90;;;;;;6201357;23;20204;-94
2022/03/20 08:31:47;;;;;;;7.63;1.73;;;3.60;99.90;;;;;;6175788;23;20666;-94
2022/03/20 08:34:19;;;;;;;8.53;1.67;;;3.60;99.90;;;;;;6202078;23;20636;-92
2022/03/20 08:36:50;;;;;;;7.00;1.53;;;3.60;99.90;;;;;;6205923;23;20176;-93
2022/03/20 08:39:28;;;;;;;8.40;2.20;;;3.60;99.90;;;;;;6204484;23;20177;-93
2022/03/20 08:42:00;;;;;;;1.90;1.20;;;3.70;99.90;;;;;;6206992;23;20173;-93
2022/03/20 08:44:31;;;;;;;5.37;1.43;;;3.70;99.90;;;;;;6204866;23;20177;-93
2022/03/20 08:47:03;;;;;;;8.80;1.80;;;3.70;99.90;;;;;;6203298;23;20187;-93
2022/03/20 08:49:35;;;;;;;10.63;1.30;;;3.70;99.90;;;;;;6179762;23;20170;-93
2022/03/20 08:52:07;;;;;;;6.93;1.50;;;3.60;99.90;;;;;;6204175;23;20283;-95
2022/03/20 08:54:41;;;;;;;6.47;2.13;;;3.70;99.90;;;;;;6181041;23;20197;-93
2022/03/20 08:57:15;;;;;;;4.63;1.20;;;3.70;99.90;;;;;;6203347;23;20176;-94
2022/03/20 08:59:46;;;;;;;6.53;1.77;;;3.70;99.90;;;;;;6193471;23;20172;-94
2022/03/20 09:02:17;;;;;;;5.53;1.37;;;3.70;99.90;;;;;;6194939;23;20173;-94
2022/03/20 09:04:49;;;;;;;5.77;1.70;;;3.70;99.90;;;;;;6193806;23;20173;-93
2022/03/20 09:07:20;;;;;;;6.03;1.80;;;3.70;99.90;;;;;;6195114;23;20170;-93
2022/03/20 09:09:53;;;;;;;5.30;1.37;;;3.70;99.90;;;;;;6175944;23;20158;-94
2022/03/20 09:12:25;;;;;;;4.20;1.20;;;3.70;99.90;;;;;;6212950;23;20181;-93
2022/03/20 09:14:56;;;;;;;7.27;1.40;;;3.70;99.90;;;;;;6212941;23;20161;-93
2022/03/20 09:20:17;;;;;;;5.20;1.40;;;3.70;99.90;;;;;;6212955;23;20193;-93
2022/03/20 09:22:48;;;;;;;3.67;1.33;;;3.70;99.90;;;;;;6212987;23;20157;-90
2022/03/20 09:25:22;;;;;;;7.07;1.60;;;3.70;99.90;;;;;;6211837;23;20164;-93
2022/03/20 09:27:54;;;;;;;4.83;1.40;;;3.80;99.90;;;;;;6211817;23;20176;-94
2022/03/20 09:30:26;;;;;;;3.63;1.70;;;3.80;99.90;;;;;;6209005;23;20628;-93
2022/03/20 09:32:58;;;;;;;6.33;1.20;;;3.70;99.90;;;;;;6209273;23;20164;-93
2022/03/20 09:35:29;;;;;;;6.67;1.93;;;3.70;99.90;;;;;;6183742;23;20180;-94
2022/03/20 09:38:02;;;;;;;2.67;1.20;;;3.70;99.90;;;;;;6207985;23;20165;-94
2022/03/20 09:40:37;;;;;;;1.83;1.03;;;3.70;99.90;;;;;;6208592;23;20205;-93
2022/03/20 09:43:10;;;;;;;8.17;1.27;;;3.60;99.90;;;;;;6208875;23;20203;-91
2022/03/20 09:45:41;;;;;;;2.50;1.17;;;3.60;99.90;;;;;;6160819;23;20184;-93
2022/03/20 09:50:49;;;;;;;2.77;1.67;;;3.60;99.90;;;;;;6205227;23;20305;-92
2022/03/20 09:53:21;;;;;;;7.13;1.20;;;3.70;99.90;;;;;;6211789;23;20164;-93
2022/03/20 09:55:55;;;;;;;3.73;1.77;;;3.70;99.90;;;;;;6211771;23;20166;-93
2022/03/20 09:58:28;;;;;;;2.77;1.10;;;3.70;99.90;;;;;;6211366;23;20172;-93
2022/03/20 10:01:00;;;;;;;4.60;1.10;;;3.60;99.90;;;;;;6211469;23;20200;-92
2022/03/20 10:03:36;;;;;;;5.33;1.33;;;3.60;99.90;;;;;;6186995;23;20189;-93
2022/03/20 10:06:09;;;;;;;4.57;1.13;;;3.60;99.90;;;;;;6211657;23;20196;-92
2022/03/20 10:08:41;;;;;;;4.17;1.00;;;3.60;99.90;;;;;;6194949;23;20177;-94
2022/03/20 10:11:19;;;;;;;6.33;1.30;;;3.60;99.90;;;;;;6178194;23;20177;-94
2022/03/20 10:14:17;;;;;;;2.57;1.00;;;3.60;99.90;;;;;;6208117;23;20256;-93
2022/03/20 10:16:50;;;;;;;5.30;1.13;;;3.70;99.90;;;;;;6182558;23;20192;-93
2022/03/20 10:19:36;;;;;;;4.57;0.97;;;3.70;99.90;;;;;;6194484;23;20554;-93
2022/03/20 10:22:09;;;;;;;5.03;1.03;;;3.70;99.90;;;;;;6207737;23;20200;-93
2022/03/20 10:24:41;;;;;;;4.60;1.10;;;3.70;99.90;;;;;;6211690;23;20165;-91
2022/03/20 10:27:16;;;;;;;2.50;1.13;;;3.70;99.90;;;;;;6210662;23;20153;-92
2022/03/20 10:29:55;;;;;;;4.00;1.00;;;3.70;99.90;;;;;;6185450;23;20197;-93
2022/03/20 10:32:26;;;;;;;6.43;1.10;;;3.70;99.90;;;;;;6204678;23;20192;-92
2022/03/20 10:34:59;;;;;;;3.97;1.00;;;3.80;99.90;;;;;;6201133;23;20248;-94
2022/03/20 10:37:51;;;;;;;2.63;0.90;;;3.80;99.90;;;;;;6197348;23;20164;-93
2022/03/20 10:40:24;;;;;;;2.10;1.03;;;3.80;99.90;;;;;;6193914;23;20197;-93
2022/03/20 10:43:12;;;;;;;2.80;1.10;;;3.80;99.90;;;;;;6166888;23;20177;-94
2022/03/20 10:46:00;;;;;;;4.13;0.97;;;3.80;99.90;;;;;;6193209;23;20173;-93
2022/03/20 10:48:38;;;;;;;6.63;1.10;;;3.80;99.90;;;;;;6195611;23;20220;-91
2022/03/20 10:51:11;;;;;;;2.47;0.80;;;3.90;99.90;;;;;;6194959;23;20188;-95
2022/03/20 10:54:01;;;;;;;3.30;0.87;;;3.90;99.90;;;;;;6192994;23;20177;-94
2022/03/20 10:56:33;;;;;;;1.43;0.70;;;3.90;99.90;;;;;;6169068;23;20173;-93
2022/03/20 10:59:17;;;;;;;6.47;1.17;;;3.90;99.90;;;;;;6196086;23;20169;-93
2022/03/20 11:01:49;;;;;;;1.73;0.87;;;3.90;99.90;;;;;;6192476;23;20235;-94
2022/03/20 11:04:21;;;;;;;2.17;0.70;;;3.90;99.90;;;;;;6193684;23;20232;-93
2022/03/20 11:06:57;;;;;;;2.10;0.90;;;3.90;99.90;;;;;;6193128;23;20188;-93
2022/03/20 11:09:28;;;;;;;2.50;0.97;;;3.90;99.90;;;;;;6193966;23;20671;-93
2022/03/20 11:12:01;;;;;;;5.03;0.90;;;3.90;99.90;;;;;;6191551;23;20196;-94
2022/03/20 11:14:38;;;;;;;1.60;0.80;;;3.90;99.90;;;;;;6156785;23;20235;-93
2022/03/20 11:17:12;;;;;;;2.57;0.60;;;3.90;99.90;;;;;;6165765;23;20170;-93
2022/03/20 11:19:46;;;;;;;4.63;0.70;;;3.90;99.90;;;;;;6164743;23;20183;-94
2022/03/20 11:22:22;;;;;;;3.90;1.00;;;4.00;99.90;;;;;;6165000;23;20224;-94
2022/03/20 11:24:55;;;;;;;4.00;0.67;;;4.00;99.90;;;;;;6165135;23;20173;-94
2022/03/20 11:27:30;;;;;;;4.47;0.77;;;3.90;99.90;;;;;;6164498;23;20189;-93
2022/03/20 11:30:07;;;;;;;5.37;1.00;;;3.90;99.90;;;;;;6164585;23;20249;-93
2022/03/20 11:32:39;;;;;;;3.60;1.07;;;3.90;99.90;;;;;;6165792;23;20170;-93
2022/03/20 11:35:11;;;;;;;3.00;0.93;;;3.90;99.90;;;;;;6179241;23;20170;-92
2022/03/20 11:37:47;;;;;;;3.60;1.07;;;4.00;99.90;;;;;;6180855;23;20173;-93
2022/03/20 11:40:20;;;;;;;5.20;1.20;;;4.00;99.90;;;;;;6170947;23;20174;-94
2022/03/20 11:42:52;;;;;;;2.60;0.80;;;4.00;99.90;;;;;;6141623;23;20284;-92
2022/03/20 11:45:26;;;;;;;3.27;0.90;;;4.00;99.90;;;;;;6139987;23;20178;-93
2022/03/20 11:48:15;;;;;;;3.80;1.10;;;4.00;99.90;;;;;;6167946;23;20189;-92
2022/03/20 11:50:51;;;;;;;5.00;1.07;;;4.00;99.90;;;;;;6163899;23;20194;-93
2022/03/20 11:53:31;;;;;;;2.93;0.90;;;4.00;99.90;;;;;;6165651;23;20173;-92
2022/03/20 11:56:09;;;;;;;1.63;1.00;;;4.00;99.90;;;;;;6165053;23;20189;-92
2022/03/20 11:58:41;;;;;;;4.37;1.80;;;4.00;99.90;;;;;;6163592;23;20189;-93
2022/03/20 12:01:16;;;;;;;5.50;1.67;;;4.00;99.90;;;;;;6163212;23;20177;-94
2022/03/20 12:03:53;;;;;;;3.97;1.07;;;4.00;99.90;;;;;;6164672;23;20185;-93
2022/03/20 12:06:53;;;;;;;3.43;0.80;;;4.00;99.90;;;;;;6165287;23;20182;-92
2022/03/20 12:09:52;;;;;;;3.00;0.97;;;4.00;99.90;;;;;;6169858;23;20200;-90
2022/03/20 12:12:44;;;;;;;3.13;0.93;;;4.00;99.90;;;;;;6179207;23;20170;-93
2022/03/20 12:15:16;;;;;;;3.13;1.00;;;4.00;99.90;;;;;;6176931;23;20192;-91
2022/03/20 12:18:04;;;;;;;3.63;1.10;;;4.00;99.90;;;;;;6174008;23;20170;-92
2022/03/20 12:21:02;;;;;;;2.10;1.20;;;4.00;99.90;;;;;;6164673;23;20185;-91
2022/03/20 12:23:35;;;;;;;4.60;0.90;;;4.00;99.90;;;;;;6164309;23;20204;-92
2022/03/20 12:26:34;;;;;;;4.07;1.50;;;4.00;99.90;;;;;;6163682;23;20173;-92
2022/03/20 12:29:29;;;;;;;3.70;0.90;;;4.00;99.90;;;;;;6162474;23;20186;-92
2022/03/20 12:32:03;;;;;;;1.17;0.60;;;4.00;99.90;;;;;;6160542;23;20173;-93
2022/03/20 12:34:38;;;;;;;1.33;0.70;;;4.00;99.90;;;;;;6165309;23;20158;-92
2022/03/20 12:37:37;;;;;;;3.93;1.10;;;4.00;99.90;;;;;;6165010;23;20193;-93
2022/03/20 12:40:10;;;;;;;2.20;0.90;;;3.90;99.90;;;;;;6166199;23;20177;-92
2022/03/20 12:43:07;;;;;;;3.33;1.13;;;3.90;99.90;;;;;;6180650;23;20254;-93
2022/03/20 12:45:43;;;;;;;7.53;1.33;;;3.90;99.90;;;;;;6154902;23;20224;-93
2022/03/20 12:48:17;;;;;;;2.20;0.70;;;4.00;99.90;;;;;;6146772;23;20166;-94
2022/03/20 12:50:54;;;;;;;3.20;1.03;;;4.00;99.90;;;;;;6165570;23;20184;-93
2022/03/20 12:53:26;;;;;;;6.40;1.03;;;4.00;99.90;;;;;;6142091;23;20246;-93
2022/03/20 12:56:00;;;;;;;1.50;0.90;;;4.00;99.90;;;;;;6165782;23;20241;-94
2022/03/20 12:58:32;;;;;;;3.20;0.80;;;4.00;99.90;;;;;;6161602;23;20695;-93
2022/03/20 13:01:12;;;;;;;2.17;0.90;;;4.00;99.90;;;;;;6139889;23;20165;-92
2022/03/20 13:03:45;;;;;;;5.57;0.90;;;4.00;99.90;;;;;;6162617;23;20604;-92
2022/03/20 13:06:28;;;;;;;5.63;1.30;;;4.00;99.90;;;;;;6138107;23;20178;-94
2022/03/20 13:09:01;;;;;;;3.13;0.97;;;4.00;99.90;;;;;;6162674;23;20165;-93
2022/03/20 13:14:23;;;;;;;1.73;0.70;;;4.00;99.90;;;;;;6193045;23;20211;-93
2022/03/20 13:16:58;;;;;;;4.13;1.00;;;4.00;99.90;;;;;;6192764;23;20173;-93
2022/03/20 13:19:37;;;;;;;3.47;1.43;;;3.90;99.90;;;;;;6192525;23;20176;-93
2022/03/20 13:22:12;;;;;;;4.40;1.03;;;3.90;99.90;;;;;;6192519;23;20193;-94
2022/03/20 13:24:46;;;;;;;2.43;0.90;;;3.90;99.90;;;;;;6192665;23;20169;-93
2022/03/20 13:27:18;;;;;;;3.03;0.70;;;4.00;99.90;;;;;;6190820;23;20181;-94
2022/03/20 13:29:56;;;;;;;1.07;0.90;;;4.00;99.90;;;;;;6166680;23;20233;-92
2022/03/20 13:32:30;;;;;;;4.30;1.03;;;4.00;99.90;;;;;;6192286;23;20203;-93
2022/03/20 13:35:06;;;;;;;5.87;1.10;;;4.10;99.90;;;;;;6192188;23;20192;-93
2022/03/20 13:37:39;;;;;;;4.63;1.10;;;4.10;99.90;;;;;;6191333;23;20201;-93
2022/03/20 13:40:13;;;;;;;2.70;0.90;;;4.10;99.90;;;;;;6190340;23;20181;-90
2022/03/20 13:42:45;;;;;;;3.77;1.07;;;4.10;99.90;;;;;;6191294;23;20200;-90
2022/03/20 13:45:16;;;;;;;4.70;0.90;;;4.10;99.90;;;;;;6191874;23;20192;-93
2022/03/20 13:47:48;;;;;;;3.10;0.93;;;4.10;99.90;;;;;;6190909;23;20239;-93
2022/03/20 13:50:21;;;;;;;2.53;1.00;;;4.10;99.90;;;;;;6192048;23;20248;-91
2022/03/20 13:52:54;;;;;;;2.10;1.03;;;4.20;99.90;;;;;;6191380;23;20185;-91
2022/03/20 13:55:34;;;;;;;2.40;0.83;;;4.10;99.90;;;;;;6192292;23;20261;-92
2022/03/20 13:58:08;;;;;;;2.07;0.77;;;4.20;99.90;;;;;;6190986;23;20259;-91
2022/03/20 14:00:40;;;;;;;4.37;1.03;;;4.10;99.90;;;;;;6191779;23;20268;-91
2022/03/20 14:03:12;;;;;;;6.13;1.00;;;4.20;99.90;;;;;;6190958;23;20224;-91
2022/03/20 14:05:53;;;;;;;2.93;1.00;;;4.20;99.90;;;;;;6191685;23;20175;-91
2022/03/20 14:08:27;;;;;;;2.70;1.27;;;4.20;99.90;;;;;;6191225;23;20178;-92
2022/03/20 14:11:04;;;;;;;2.90;0.70;;;4.10;99.90;;;;;;6192564;23;20216;-92
2022/03/20 14:13:43;;;;;;;4.07;0.90;;;4.10;99.90;;;;;;6193450;23;20173;-92
2022/03/20 14:16:17;;;;;;;4.37;1.10;;;4.10;99.90;;;;;;6198085;23;20220;-94
2022/03/20 14:19:00;;;;;;;2.83;1.03;;;4.10;99.90;;;;;;6210361;23;20211;-93
2022/03/20 14:21:32;;;;;;;4.07;1.07;;;4.10;99.90;;;;;;6211007;23;20173;-93
2022/03/20 14:24:08;;;;;;;2.50;0.87;;;4.10;99.90;;;;;;6208087;23;20193;-93
2022/03/20 14:26:42;;;;;;;2.93;1.00;;;4.10;99.90;;;;;;6205038;23;20177;-91
2022/03/20 14:39:26;;;;;;;4.10;0.90;;;4.10;99.90;;;;;;6206434;23;20169;-92
2022/03/20 14:40:48;;;;;;;1.20;0.73;;;4.20;99.90;;;;;;6194957;23;20640;-92
2022/03/20 14:43:26;;;;;;;5.73;1.10;;;4.10;99.90;;;;;;6191665;23;20193;-94
2022/03/20 14:45:59;;;;;;;2.67;1.10;;;4.10;99.90;;;;;;6192036;23;20196;-92
2022/03/20 14:48:31;;;;;;;3.67;0.90;;;4.10;99.90;;;;;;6190016;23;20189;-94
2022/03/20 14:51:03;;;;;;;2.93;0.90;;;4.10;99.90;;;;;;6167002;23;20165;-92
2022/03/20 14:53:34;;;;;;;4.27;1.10;;;4.10;99.90;;;;;;6191707;23;20181;-91
2022/03/20 14:56:10;;;;;;;1.60;0.93;;;4.10;99.90;;;;;;6191463;23;20177;-91
2022/03/20 14:58:45;;;;;;;3.10;1.03;;;4.10;99.90;;;;;;6204635;23;20169;-92
2022/03/20 15:01:17;;;;;;;2.77;0.97;;;4.10;99.90;;;;;;6210325;23;20169;-93
2022/03/20 15:03:48;;;;;;;2.20;0.70;;;4.10;99.90;;;;;;6209712;23;20245;-93